Paz Navigator — PBLM — position and weather

sailwx.info

Track history (hours):
 
Tides and Currents Weather Stations Pressure Air Temp Water Temp Dewpoint Dewpoint Depression Visibility Wind Speed Wind Dir Waves Ship Positions

Paz Navigator

Last reported at 2017-Nov-16 02:04 UTC. Time now 2017-Nov-21 23:00 UTC.
Position N 35°60' W 005°17'.

Length 118 m; draft 4.9 m.

Type: Ship. MMSI: 244790009.

Date/timePositionNaut miles runAvg speedWind from/ knotsBaromVisibWave heightAir tempDewpointWater temp
2017-Nov-16 02:04N 35°60' W 005°17'115.3
2017-Nov-16 02:00N 35°60' W 005°18'250 9.5
2017-Nov-14 23:33N 38°37' W 009°23'112.1
2017-Nov-14 23:30N 38°37' W 009°23'611.1
2017-Nov-14 23:00N 38°41' W 009°17'5 9.7
2017-Nov-14 22:26N 38°41' W 009°10'  
2017-Nov-11 17:31N 38°42' W 009°09'213.6
2017-Nov-11 17:24N 38°41' W 009°11'510.4
2017-Nov-11 16:58N 38°41' W 009°17'712.1
2017-Nov-11 16:21N 38°35' W 009°22'413.0
2017-Nov-11 16:00N 38°30' W 009°22'612.9
2017-Nov-11 15:30N 38°24' W 009°22'612.5
2017-Nov-11 15:00N 38°18' W 009°22'712.4
2017-Nov-11 14:29N 38°11' W 009°21'612.6
2017-Nov-11 13:58N 38°05' W 009°22'612.6
2017-Nov-11 13:30N 37°59' W 009°22'  
Track history (hours):
 
Tides and Currents Weather Stations Pressure Air Temp Water Temp Dewpoint Dewpoint Depression Visibility Wind Speed Wind Dir Waves Ship Positions

Paz Navigator

Last reported at 2017-Nov-16 02:04 UTC. Time now 2017-Nov-21 23:00 UTC.
Position N 35°60' W 005°17'.

Length 118 m; draft 4.9 m.

Type: Ship. MMSI: 244790009.

Date/timePositionNaut miles runAvg speedWind from/ knotsBaromVisibWave heightAir tempDewpointWater temp
2017-Nov-16 02:04N 35°60' W 005°17'115.3
2017-Nov-16 02:00N 35°60' W 005°18'250 9.5
2017-Nov-14 23:33N 38°37' W 009°23'112.1
2017-Nov-14 23:30N 38°37' W 009°23'611.1
2017-Nov-14 23:00N 38°41' W 009°17'5 9.7
2017-Nov-14 22:26N 38°41' W 009°10'  
2017-Nov-11 17:31N 38°42' W 009°09'213.6
2017-Nov-11 17:24N 38°41' W 009°11'510.4
2017-Nov-11 16:58N 38°41' W 009°17'712.1
2017-Nov-11 16:21N 38°35' W 009°22'413.0
2017-Nov-11 16:00N 38°30' W 009°22'612.9
2017-Nov-11 15:30N 38°24' W 009°22'612.5
2017-Nov-11 15:00N 38°18' W 009°22'712.4
2017-Nov-11 14:29N 38°11' W 009°21'612.6
2017-Nov-11 13:58N 38°05' W 009°22'612.6
2017-Nov-11 13:30N 37°59' W 009°22'  

Dump ship's entire track history